sensor_id;sensor_type;location;lat;lon;timestamp;pressure;altitude;pressure_sealevel;temperature;humidity
78073;BME280;67281;48.770;11.440;2023-02-01T00:00:54;97715.78;;;11.38;45.82
78073;BME280;67281;48.770;11.440;2023-02-01T00:03:20;97699.84;;;11.41;45.42
78073;BME280;67281;48.770;11.440;2023-02-01T00:05:58;97696.88;;;11.33;45.44
78073;BME280;67281;48.770;11.440;2023-02-01T00:08:25;97687.63;;;11.28;45.91
78073;BME280;67281;48.770;11.440;2023-02-01T00:11:04;97682.38;;;11.28;45.75
78073;BME280;67281;48.770;11.440;2023-02-01T00:13:32;97678.41;;;11.35;45.40
78073;BME280;67281;48.770;11.440;2023-02-01T00:16:11;97672.81;;;11.14;46.47
78073;BME280;67281;48.770;11.440;2023-02-01T00:18:39;97680.84;;;11.38;45.50
78073;BME280;67281;48.770;11.440;2023-02-01T00:21:05;97673.41;;;11.44;45.10
78073;BME280;67281;48.770;11.440;2023-02-01T00:23:36;97673.56;;;11.29;45.52
78073;BME280;67281;48.770;11.440;2023-02-01T00:26:04;97672.53;;;11.31;46.04
78073;BME280;67281;48.770;11.440;2023-02-01T00:28:31;97664.88;;;11.28;45.63
78073;BME280;67281;48.770;11.440;2023-02-01T00:31:02;97665.75;;;11.14;45.85
78073;BME280;67281;48.770;11.440;2023-02-01T00:33:30;97661.28;;;11.29;45.70
78073;BME280;67281;48.770;11.440;2023-02-01T00:36:02;97662.75;;;11.20;46.36
78073;BME280;67281;48.770;11.440;2023-02-01T00:38:29;97650.78;;;11.16;46.29
78073;BME280;67281;48.770;11.440;2023-02-01T00:41:16;97660.66;;;11.26;46.06
78073;BME280;67281;48.770;11.440;2023-02-01T00:43:44;97654.13;;;11.18;46.37
78073;BME280;67281;48.770;11.440;2023-02-01T00:46:12;97645.25;;;11.34;45.76
78073;BME280;67281;48.770;11.440;2023-02-01T00:48:40;97653.44;;;11.29;45.69
78073;BME280;67281;48.770;11.440;2023-02-01T00:51:09;97645.84;;;11.25;45.78
78073;BME280;67281;48.770;11.440;2023-02-01T00:53:36;97640.00;;;11.34;45.52
78073;BME280;67281;48.770;11.440;2023-02-01T00:56:04;97642.63;;;11.34;46.09
78073;BME280;67281;48.770;11.440;2023-02-01T00:58:32;97636.31;;;11.24;46.34
78073;BME280;67281;48.770;11.440;2023-02-01T01:03:30;97650.16;;;11.26;46.08
78073;BME280;67281;48.770;11.440;2023-02-01T01:06:01;97640.19;;;11.18;46.34
78073;BME280;67281;48.770;11.440;2023-02-01T01:08:28;97643.88;;;11.28;45.79
78073;BME280;67281;48.770;11.440;2023-02-01T01:10:55;97615.31;;;11.24;46.02
78073;BME280;67281;48.770;11.440;2023-02-01T01:13:22;97646.94;;;11.35;45.76
78073;BME280;67281;48.770;11.440;2023-02-01T01:15:49;97638.59;;;11.15;46.33
78073;BME280;67281;48.770;11.440;2023-02-01T01:18:16;97636.94;;;11.27;46.50
78073;BME280;67281;48.770;11.440;2023-02-01T01:20:42;97639.16;;;11.33;46.19
78073;BME280;67281;48.770;11.440;2023-02-01T01:23:09;97647.78;;;11.35;45.52
78073;BME280;67281;48.770;11.440;2023-02-01T01:25:38;97642.06;;;11.16;46.76
78073;BME280;67281;48.770;11.440;2023-02-01T01:28:05;97630.88;;;11.27;46.46
78073;BME280;67281;48.770;11.440;2023-02-01T01:30:34;97628.97;;;11.29;45.97
78073;BME280;67281;48.770;11.440;2023-02-01T01:33:01;97626.78;;;11.35;46.16
78073;BME280;67281;48.770;11.440;2023-02-01T01:35:30;97624.06;;;11.37;45.32
78073;BME280;67281;48.770;11.440;2023-02-01T01:37:58;97630.88;;;11.39;46.16
78073;BME280;67281;48.770;11.440;2023-02-01T01:40:26;97635.47;;;11.23;46.62
78073;BME280;67281;48.770;11.440;2023-02-01T01:42:53;97634.88;;;11.32;46.24
78073;BME280;67281;48.770;11.440;2023-02-01T01:47:58;97640.97;;;11.45;45.71
78073;BME280;67281;48.770;11.440;2023-02-01T01:50:31;97634.59;;;11.62;45.29
78073;BME280;67281;48.770;11.440;2023-02-01T01:53:01;97633.34;;;11.68;45.14
78073;BME280;67281;48.770;11.440;2023-02-01T01:55:33;97629.75;;;11.69;45.34
78073;BME280;67281;48.770;11.440;2023-02-01T01:58:04;97623.56;;;11.70;45.04
78073;BME280;67281;48.770;11.440;2023-02-01T02:00:32;97626.94;;;11.72;45.07
78073;BME280;67281;48.770;11.440;2023-02-01T02:03:30;97623.16;;;11.63;45.50
78073;BME280;67281;48.770;11.440;2023-02-01T02:06:02;97614.41;;;11.50;45.70
78073;BME280;67281;48.770;11.440;2023-02-01T02:08:31;97621.66;;;11.59;45.29
78073;BME280;67281;48.770;11.440;2023-02-01T02:10:57;97614.34;;;11.77;44.73
78073;BME280;67281;48.770;11.440;2023-02-01T02:13:39;97619.06;;;11.72;44.75
78073;BME280;67281;48.770;11.440;2023-02-01T02:18:54;97619.13;;;11.45;46.01
78073;BME280;67281;48.770;11.440;2023-02-01T02:27:06;97611.50;;;11.67;45.62
78073;BME280;67281;48.770;11.440;2023-02-01T02:38:25;97594.59;;;11.46;45.67
78073;BME280;67281;48.770;11.440;2023-02-01T02:41:13;97605.63;;;11.64;45.62
78073;BME280;67281;48.770;11.440;2023-02-01T02:44:09;97603.66;;;11.80;44.88
78073;BME280;67281;48.770;11.440;2023-02-01T02:47:02;97601.44;;;11.87;44.32
78073;BME280;67281;48.770;11.440;2023-02-01T02:49:57;97593.22;;;11.66;45.24
78073;BME280;67281;48.770;11.440;2023-02-01T02:52:51;97584.09;;;11.59;45.84
78073;BME280;67281;48.770;11.440;2023-02-01T02:55:38;97581.56;;;11.57;45.35
78073;BME280;67281;48.770;11.440;2023-02-01T02:58:07;97580.53;;;11.72;45.03
78073;BME280;67281;48.770;11.440;2023-02-01T03:00:54;97582.19;;;11.61;45.69
78073;BME280;67281;48.770;11.440;2023-02-01T03:03:42;97578.31;;;11.53;46.02
78073;BME280;67281;48.770;11.440;2023-02-01T03:06:27;97572.00;;;11.69;45.30
78073;BME280;67281;48.770;11.440;2023-02-01T03:08:57;97588.06;;;11.64;45.48
78073;BME280;67281;48.770;11.440;2023-02-01T03:11:24;97579.88;;;11.56;45.70
78073;BME280;67281;48.770;11.440;2023-02-01T03:14:12;97576.53;;;11.54;45.65
78073;BME280;67281;48.770;11.440;2023-02-01T03:16:47;97574.97;;;11.64;45.34
78073;BME280;67281;48.770;11.440;2023-02-01T03:19:22;97566.88;;;11.55;45.35
78073;BME280;67281;48.770;11.440;2023-02-01T03:21:56;97571.38;;;11.52;45.78
78073;BME280;67281;48.770;11.440;2023-02-01T03:24:30;97564.34;;;11.53;45.59
78073;BME280;67281;48.770;11.440;2023-02-01T03:27:05;97568.25;;;11.47;46.32
78073;BME280;67281;48.770;11.440;2023-02-01T03:29:45;97555.22;;;11.59;45.60
78073;BME280;67281;48.770;11.440;2023-02-01T03:32:14;97543.78;;;11.60;45.22
78073;BME280;67281;48.770;11.440;2023-02-01T03:34:41;97550.50;;;11.51;45.97
78073;BME280;67281;48.770;11.440;2023-02-01T03:37:12;97565.50;;;11.62;45.56
78073;BME280;67281;48.770;11.440;2023-02-01T03:42:22;97584.22;;;11.82;45.06
78073;BME280;67281;48.770;11.440;2023-02-01T03:45:31;97586.00;;;11.82;44.77
78073;BME280;67281;48.770;11.440;2023-02-01T03:48:01;97580.13;;;11.78;45.17
78073;BME280;67281;48.770;11.440;2023-02-01T03:50:30;97566.25;;;11.64;45.62
78073;BME280;67281;48.770;11.440;2023-02-01T03:53:09;97560.16;;;11.50;46.02
78073;BME280;67281;48.770;11.440;2023-02-01T03:55:38;97562.69;;;11.52;45.83
78073;BME280;67281;48.770;11.440;2023-02-01T03:58:12;97551.34;;;11.51;46.15
78073;BME280;67281;48.770;11.440;2023-02-01T04:00:40;97555.22;;;11.46;46.43
78073;BME280;67281;48.770;11.440;2023-02-01T04:03:07;97561.63;;;11.55;45.96
78073;BME280;67281;48.770;11.440;2023-02-01T04:05:34;97563.09;;;11.59;45.88
78073;BME280;67281;48.770;11.440;2023-02-01T04:08:01;97559.09;;;11.66;45.42
78073;BME280;67281;48.770;11.440;2023-02-01T04:10:28;97563.53;;;11.52;45.56
78073;BME280;67281;48.770;11.440;2023-02-01T04:12:54;97560.88;;;11.65;45.33
78073;BME280;67281;48.770;11.440;2023-02-01T04:15:21;97546.72;;;11.68;45.13
78073;BME280;67281;48.770;11.440;2023-02-01T04:17:48;97548.19;;;11.46;45.98
78073;BME280;67281;48.770;11.440;2023-02-01T04:20:15;97555.13;;;11.47;46.05
78073;BME280;67281;48.770;11.440;2023-02-01T04:22:41;97557.63;;;11.49;46.10
78073;BME280;67281;48.770;11.440;2023-02-01T04:25:08;97561.22;;;11.48;46.19
78073;BME280;67281;48.770;11.440;2023-02-01T04:27:35;97551.75;;;11.58;45.95
78073;BME280;67281;48.770;11.440;2023-02-01T04:30:03;97555.22;;;11.59;45.73
78073;BME280;67281;48.770;11.440;2023-02-01T04:32:30;97553.13;;;11.51;45.81
78073;BME280;67281;48.770;11.440;2023-02-01T04:34:56;97543.38;;;11.53;45.65
78073;BME280;67281;48.770;11.440;2023-02-01T04:37:23;97540.94;;;11.63;45.57
78073;BME280;67281;48.770;11.440;2023-02-01T04:39:50;97530.97;;;11.68;45.54
78073;BME280;67281;48.770;11.440;2023-02-01T04:42:16;97525.84;;;11.53;45.75
78073;BME280;67281;48.770;11.440;2023-02-01T04:44:43;97537.78;;;11.58;45.44
78073;BME280;67281;48.770;11.440;2023-02-01T04:47:09;97521.53;;;11.52;45.48
78073;BME280;67281;48.770;11.440;2023-02-01T04:49:36;97518.81;;;11.54;45.61
78073;BME280;67281;48.770;11.440;2023-02-01T04:52:03;97512.91;;;11.63;45.40
78073;BME280;67281;48.770;11.440;2023-02-01T04:54:30;97516.38;;;11.51;45.71
78073;BME280;67281;48.770;11.440;2023-02-01T04:56:56;97524.25;;;11.51;45.57
78073;BME280;67281;48.770;11.440;2023-02-01T04:59:23;97510.81;;;11.56;45.96
78073;BME280;67281;48.770;11.440;2023-02-01T05:01:50;97531.59;;;11.59;45.29
78073;BME280;67281;48.770;11.440;2023-02-01T05:04:16;97537.06;;;11.68;45.30
78073;BME280;67281;48.770;11.440;2023-02-01T05:06:45;97532.13;;;11.64;45.65
78073;BME280;67281;48.770;11.440;2023-02-01T05:09:11;97532.03;;;11.52;45.93
78073;BME280;67281;48.770;11.440;2023-02-01T05:11:38;97536.84;;;11.71;45.59
78073;BME280;67281;48.770;11.440;2023-02-01T05:14:23;97543.38;;;11.78;44.83
78073;BME280;67281;48.770;11.440;2023-02-01T05:16:50;97536.31;;;11.66;45.22
78073;BME280;67281;48.770;11.440;2023-02-01T05:19:16;97528.75;;;11.62;45.45
78073;BME280;67281;48.770;11.440;2023-02-01T05:21:43;97528.03;;;11.60;45.25
78073;BME280;67281;48.770;11.440;2023-02-01T05:24:10;97529.72;;;11.48;45.76
78073;BME280;67281;48.770;11.440;2023-02-01T05:26:37;97516.69;;;11.59;45.65
78073;BME280;67281;48.770;11.440;2023-02-01T05:29:05;97522.16;;;11.56;45.98
78073;BME280;67281;48.770;11.440;2023-02-01T05:31:32;97519.53;;;11.56;45.24
78073;BME280;67281;48.770;11.440;2023-02-01T05:33:59;97526.88;;;11.51;46.12
78073;BME280;67281;48.770;11.440;2023-02-01T05:36:42;97513.88;;;11.24;46.30
78073;BME280;67281;48.770;11.440;2023-02-01T05:39:08;97516.50;;;11.24;46.56
78073;BME280;67281;48.770;11.440;2023-02-01T05:41:36;97510.72;;;11.32;46.10
78073;BME280;67281;48.770;11.440;2023-02-01T05:44:03;97521.97;;;11.21;46.85
78073;BME280;67281;48.770;11.440;2023-02-01T05:46:30;97512.50;;;11.18;46.37
78073;BME280;67281;48.770;11.440;2023-02-01T05:48:57;97512.63;;;11.30;46.33
78073;BME280;67281;48.770;11.440;2023-02-01T05:51:23;97512.09;;;11.25;45.95
78073;BME280;67281;48.770;11.440;2023-02-01T05:53:50;97510.22;;;11.27;46.70
78073;BME280;67281;48.770;11.440;2023-02-01T05:56:17;97517.75;;;11.31;46.59
78073;BME280;67281;48.770;11.440;2023-02-01T05:58:43;97512.81;;;11.27;46.14
78073;BME280;67281;48.770;11.440;2023-02-01T06:01:10;97494.16;;;11.31;45.83
78073;BME280;67281;48.770;11.440;2023-02-01T06:03:37;97496.88;;;11.17;46.71
78073;BME280;67281;48.770;11.440;2023-02-01T06:06:04;97508.56;;;11.13;46.91
78073;BME280;67281;48.770;11.440;2023-02-01T06:08:31;97490.06;;;11.27;46.65
78073;BME280;67281;48.770;11.440;2023-02-01T06:11:00;97487.34;;;11.29;46.01
78073;BME280;67281;48.770;11.440;2023-02-01T06:13:27;97500.88;;;11.23;46.35
78073;BME280;67281;48.770;11.440;2023-02-01T06:15:54;97494.69;;;11.24;46.99
78073;BME280;67281;48.770;11.440;2023-02-01T06:18:23;97494.38;;;11.03;47.10
78073;BME280;67281;48.770;11.440;2023-02-01T06:20:54;97486.06;;;11.22;46.79
78073;BME280;67281;48.770;11.440;2023-02-01T06:23:21;97493.88;;;11.10;46.68
78073;BME280;67281;48.770;11.440;2023-02-01T06:25:51;97496.50;;;11.10;47.12
78073;BME280;67281;48.770;11.440;2023-02-01T06:28:18;97506.44;;;10.93;47.33
78073;BME280;67281;48.770;11.440;2023-02-01T06:30:45;97501.22;;;11.05;47.08
78073;BME280;67281;48.770;11.440;2023-02-01T06:33:15;97495.19;;;11.16;47.17
78073;BME280;67281;48.770;11.440;2023-02-01T06:35:42;97505.78;;;11.14;47.19
78073;BME280;67281;48.770;11.440;2023-02-01T06:38:11;97511.88;;;11.15;46.63
78073;BME280;67281;48.770;11.440;2023-02-01T06:40:39;97501.81;;;11.22;46.91
78073;BME280;67281;48.770;11.440;2023-02-01T06:43:05;97505.16;;;11.24;46.66
78073;BME280;67281;48.770;11.440;2023-02-01T06:45:32;97501.06;;;11.19;46.47
78073;BME280;67281;48.770;11.440;2023-02-01T06:47:59;97518.06;;;11.27;46.78
78073;BME280;67281;48.770;11.440;2023-02-01T06:50:27;97512.09;;;11.25;46.94
78073;BME280;67281;48.770;11.440;2023-02-01T06:52:54;97509.56;;;11.23;46.96
78073;BME280;67281;48.770;11.440;2023-02-01T06:55:21;97507.06;;;11.22;46.65
78073;BME280;67281;48.770;11.440;2023-02-01T06:57:53;97510.75;;;11.06;47.39
78073;BME280;67281;48.770;11.440;2023-02-01T07:00:20;97502.56;;;10.98;47.68
78073;BME280;67281;48.770;11.440;2023-02-01T07:02:47;97500.66;;;11.26;46.33
78073;BME280;67281;48.770;11.440;2023-02-01T07:05:14;97501.81;;;11.22;46.81
78073;BME280;67281;48.770;11.440;2023-02-01T07:07:41;97510.34;;;11.12;46.67
78073;BME280;67281;48.770;11.440;2023-02-01T07:10:09;97512.94;;;11.00;47.12
78073;BME280;67281;48.770;11.440;2023-02-01T07:12:39;97513.59;;;11.03;46.88
78073;BME280;67281;48.770;11.440;2023-02-01T07:15:06;97509.69;;;10.96;47.49
78073;BME280;67281;48.770;11.440;2023-02-01T07:17:33;97515.47;;;11.01;47.25
78073;BME280;67281;48.770;11.440;2023-02-01T07:19:59;97519.97;;;11.25;47.04
78073;BME280;67281;48.770;11.440;2023-02-01T07:22:28;97522.06;;;11.19;46.65
78073;BME280;67281;48.770;11.440;2023-02-01T07:24:54;97516.91;;;11.31;46.03
78073;BME280;67281;48.770;11.440;2023-02-01T07:27:21;97524.69;;;11.32;46.45
78073;BME280;67281;48.770;11.440;2023-02-01T07:29:54;97513.25;;;11.20;46.64
78073;BME280;67281;48.770;11.440;2023-02-01T07:32:21;97513.03;;;11.24;46.65
78073;BME280;67281;48.770;11.440;2023-02-01T07:34:48;97522.06;;;11.19;46.91
78073;BME280;67281;48.770;11.440;2023-02-01T07:37:15;97530.78;;;11.33;46.41
78073;BME280;67281;48.770;11.440;2023-02-01T07:39:42;97523.22;;;11.15;47.05
78073;BME280;67281;48.770;11.440;2023-02-01T07:42:08;97527.41;;;11.31;46.27
78073;BME280;67281;48.770;11.440;2023-02-01T07:44:35;97513.91;;;11.11;46.78
78073;BME280;67281;48.770;11.440;2023-02-01T07:47:02;97527.75;;;11.13;47.31
78073;BME280;67281;48.770;11.440;2023-02-01T07:49:28;97532.78;;;11.04;47.65
78073;BME280;67281;48.770;11.440;2023-02-01T07:51:55;97525.75;;;11.04;47.09
78073;BME280;67281;48.770;11.440;2023-02-01T07:54:21;97526.25;;;10.97;48.10
78073;BME280;67281;48.770;11.440;2023-02-01T07:56:48;97533.09;;;10.99;47.78
78073;BME280;67281;48.770;11.440;2023-02-01T07:59:15;97539.69;;;11.17;47.13
78073;BME280;67281;48.770;11.440;2023-02-01T08:01:42;97535.38;;;11.29;46.69
78073;BME280;67281;48.770;11.440;2023-02-01T08:04:11;97532.66;;;11.05;47.85
78073;BME280;67281;48.770;11.440;2023-02-01T08:06:38;97527.00;;;10.99;47.91
78073;BME280;67281;48.770;11.440;2023-02-01T08:09:06;97529.00;;;10.95;47.74
78073;BME280;67281;48.770;11.440;2023-02-01T08:11:34;97520.81;;;11.12;47.78
78073;BME280;67281;48.770;11.440;2023-02-01T08:14:03;97519.34;;;10.96;48.26
78073;BME280;67281;48.770;11.440;2023-02-01T08:16:30;97540.03;;;11.13;47.88
78073;BME280;67281;48.770;11.440;2023-02-01T08:18:57;97533.41;;;11.07;47.96
78073;BME280;67281;48.770;11.440;2023-02-01T08:21:26;97532.38;;;11.10;47.22
78073;BME280;67281;48.770;11.440;2023-02-01T08:23:54;97531.19;;;11.01;47.66
78073;BME280;67281;48.770;11.440;2023-02-01T08:26:24;97557.22;;;11.04;47.97
78073;BME280;67281;48.770;11.440;2023-02-01T08:28:54;97545.38;;;11.11;47.43
78073;BME280;67281;48.770;11.440;2023-02-01T08:31:23;97548.84;;;11.12;47.44
78073;BME280;67281;48.770;11.440;2023-02-01T08:33:55;97562.25;;;11.07;47.79
78073;BME280;67281;48.770;11.440;2023-02-01T08:36:24;97553.97;;;11.13;47.43
78073;BME280;67281;48.770;11.440;2023-02-01T08:38:51;97558.25;;;11.27;47.56
78073;BME280;67281;48.770;11.440;2023-02-01T08:41:21;97559.00;;;11.29;46.78
78073;BME280;67281;48.770;11.440;2023-02-01T08:43:48;97550.59;;;11.37;46.96
78073;BME280;67281;48.770;11.440;2023-02-01T08:46:16;97551.75;;;11.33;47.42
78073;BME280;67281;48.770;11.440;2023-02-01T08:48:43;97551.34;;;11.13;47.99
78073;BME280;67281;48.770;11.440;2023-02-01T08:51:12;97549.75;;;11.24;47.56
78073;BME280;67281;48.770;11.440;2023-02-01T08:53:40;97550.69;;;11.23;47.33
78073;BME280;67281;48.770;11.440;2023-02-01T08:56:08;97559.31;;;11.12;47.54
78073;BME280;67281;48.770;11.440;2023-02-01T08:58:36;97563.72;;;11.11;48.38
78073;BME280;67281;48.770;11.440;2023-02-01T09:01:08;97571.25;;;11.16;48.21
78073;BME280;67281;48.770;11.440;2023-02-01T09:03:35;97574.22;;;11.11;47.73
78073;BME280;67281;48.770;11.440;2023-02-01T09:06:04;97575.06;;;11.12;47.93
78073;BME280;67281;48.770;11.440;2023-02-01T09:08:31;97563.09;;;11.08;48.30
78073;BME280;67281;48.770;11.440;2023-02-01T09:11:02;97575.03;;;10.99;48.25
78073;BME280;67281;48.770;11.440;2023-02-01T09:13:29;97576.72;;;11.00;48.79
78073;BME280;67281;48.770;11.440;2023-02-01T09:15:56;97578.50;;;11.25;47.41
78073;BME280;67281;48.770;11.440;2023-02-01T09:18:23;97581.34;;;11.22;48.07
78073;BME280;67281;48.770;11.440;2023-02-01T09:20:50;97581.97;;;11.38;47.07
78073;BME280;67281;48.770;11.440;2023-02-01T09:23:16;97577.69;;;11.37;46.73
78073;BME280;67281;48.770;11.440;2023-02-01T09:25:43;97574.53;;;11.32;47.20
78073;BME280;67281;48.770;11.440;2023-02-01T09:28:10;97583.84;;;11.24;47.81
78073;BME280;67281;48.770;11.440;2023-02-01T09:30:59;97573.47;;;11.09;48.47
78073;BME280;67281;48.770;11.440;2023-02-01T09:33:27;97583.25;;;11.33;47.24
78073;BME280;67281;48.770;11.440;2023-02-01T09:35:58;97603.16;;;11.23;47.95
78073;BME280;67281;48.770;11.440;2023-02-01T09:38:25;97592.69;;;11.35;47.60
78073;BME280;67281;48.770;11.440;2023-02-01T09:40:54;97598.78;;;11.36;47.21
78073;BME280;67281;48.770;11.440;2023-02-01T09:48:43;97602.13;;;11.12;48.11
78073;BME280;67281;48.770;11.440;2023-02-01T09:51:16;97599.59;;;11.24;48.07
78073;BME280;67281;48.770;11.440;2023-02-01T09:53:48;97600.88;;;11.43;47.58
78073;BME280;67281;48.770;11.440;2023-02-01T09:56:25;97596.88;;;11.25;47.55
78073;BME280;67281;48.770;11.440;2023-02-01T09:59:04;97612.81;;;11.35;47.57
78073;BME280;67281;48.770;11.440;2023-02-01T10:01:35;97616.81;;;11.40;47.66
78073;BME280;67281;48.770;11.440;2023-02-01T10:04:07;97605.25;;;11.30;47.19
78073;BME280;67281;48.770;11.440;2023-02-01T10:12:17;97621.91;;;11.16;48.73
78073;BME280;67281;48.770;11.440;2023-02-01T10:15:09;97631.66;;;11.14;48.66
78073;BME280;67281;48.770;11.440;2023-02-01T10:18:04;97626.97;;;11.19;48.46
78073;BME280;67281;48.770;11.440;2023-02-01T10:20:57;97634.19;;;11.16;48.68
78073;BME280;67281;48.770;11.440;2023-02-01T10:23:50;97642.41;;;11.11;48.30
78073;BME280;67281;48.770;11.440;2023-02-01T10:26:26;97637.25;;;11.10;48.69
78073;BME280;67281;48.770;11.440;2023-02-01T10:29:01;97635.91;;;11.30;48.44
78073;BME280;67281;48.770;11.440;2023-02-01T10:31:30;97632.84;;;11.10;48.62
78073;BME280;67281;48.770;11.440;2023-02-01T10:34:00;97630.22;;;11.10;48.36
78073;BME280;67281;48.770;11.440;2023-02-01T10:36:32;97627.84;;;11.33;48.04
78073;BME280;67281;48.770;11.440;2023-02-01T10:39:03;97616.91;;;11.26;48.00
78073;BME280;67281;48.770;11.440;2023-02-01T10:41:37;97611.78;;;11.12;48.51
78073;BME280;67281;48.770;11.440;2023-02-01T10:44:15;97620.13;;;11.04;49.30
78073;BME280;67281;48.770;11.440;2023-02-01T10:46:42;97626.31;;;11.16;48.66
78073;BME280;67281;48.770;11.440;2023-02-01T10:49:16;97612.50;;;11.27;48.22
78073;BME280;67281;48.770;11.440;2023-02-01T10:51:59;97608.31;;;11.24;49.54
78073;BME280;67281;48.770;11.440;2023-02-01T10:54:34;97603.47;;;11.31;48.49
78073;BME280;67281;48.770;11.440;2023-02-01T10:57:01;97611.13;;;11.21;48.95
78073;BME280;67281;48.770;11.440;2023-02-01T10:59:29;97608.22;;;11.38;47.94
78073;BME280;67281;48.770;11.440;2023-02-01T11:02:01;97612.41;;;11.41;48.07
78073;BME280;67281;48.770;11.440;2023-02-01T11:04:34;97613.47;;;11.38;48.07
78073;BME280;67281;48.770;11.440;2023-02-01T11:07:14;97621.25;;;11.65;47.42
78073;BME280;67281;48.770;11.440;2023-02-01T11:09:50;97621.91;;;11.81;46.97
78073;BME280;67281;48.770;11.440;2023-02-01T11:12:35;97631.38;;;11.84;46.13
78073;BME280;67281;48.770;11.440;2023-02-01T11:15:21;97640.94;;;11.85;46.24
78073;BME280;67281;48.770;11.440;2023-02-01T11:17:50;97655.09;;;11.82;46.54
78073;BME280;67281;48.770;11.440;2023-02-01T11:22:58;97645.97;;;11.88;46.75
78073;BME280;67281;48.770;11.440;2023-02-01T11:25:25;97633.78;;;11.87;46.51
78073;BME280;67281;48.770;11.440;2023-02-01T11:27:54;97638.69;;;11.92;46.17
78073;BME280;67281;48.770;11.440;2023-02-01T11:30:33;97627.97;;;11.95;46.56
78073;BME280;67281;48.770;11.440;2023-02-01T11:33:03;97621.25;;;11.91;46.18
78073;BME280;67281;48.770;11.440;2023-02-01T11:35:34;97626.28;;;11.94;46.20
78073;BME280;67281;48.770;11.440;2023-02-01T11:38:11;97620.81;;;11.97;46.56
78073;BME280;67281;48.770;11.440;2023-02-01T11:40:40;97617.03;;;12.01;45.96
78073;BME280;67281;48.770;11.440;2023-02-01T11:45:33;97600.84;;;12.07;45.89
78073;BME280;67281;48.770;11.440;2023-02-01T11:48:01;97596.34;;;11.96;46.97
78073;BME280;67281;48.770;11.440;2023-02-01T11:56:40;97565.38;;;11.89;47.08
78073;BME280;67281;48.770;11.440;2023-02-01T12:02:49;97568.75;;;11.65;47.20
78073;BME280;67281;48.770;11.440;2023-02-01T12:21:42;97536.00;;;11.71;47.40
78073;BME280;67281;48.770;11.440;2023-02-01T12:43:52;97540.31;;;11.59;48.35
78073;BME280;67281;48.770;11.440;2023-02-01T12:49:19;97535.81;;;11.61;47.62
78073;BME280;67281;48.770;11.440;2023-02-01T12:52:00;97541.16;;;11.60;48.12
78073;BME280;67281;48.770;11.440;2023-02-01T12:54:53;97527.63;;;11.53;48.08
78073;BME280;67281;48.770;11.440;2023-02-01T12:57:27;97522.25;;;11.55;47.93
78073;BME280;67281;48.770;11.440;2023-02-01T13:00:21;97525.50;;;11.58;48.36
78073;BME280;67281;48.770;11.440;2023-02-01T13:02:52;97533.28;;;11.47;48.77
78073;BME280;67281;48.770;11.440;2023-02-01T13:05:24;97538.75;;;11.57;48.60
78073;BME280;67281;48.770;11.440;2023-02-01T13:08:12;97528.25;;;11.57;48.44
78073;BME280;67281;48.770;11.440;2023-02-01T13:10:47;97522.16;;;11.56;48.16
78073;BME280;67281;48.770;11.440;2023-02-01T13:15:47;97534.44;;;11.56;48.43
78073;BME280;67281;48.770;11.440;2023-02-01T13:18:20;97530.13;;;11.67;47.55
78073;BME280;67281;48.770;11.440;2023-02-01T13:20:58;97529.81;;;11.59;47.88
78073;BME280;67281;48.770;11.440;2023-02-01T13:23:35;97529.72;;;11.48;48.02
78073;BME280;67281;48.770;11.440;2023-02-01T13:26:03;97539.06;;;11.52;48.46
78073;BME280;67281;48.770;11.440;2023-02-01T13:28:52;97543.56;;;11.50;48.30
78073;BME280;67281;48.770;11.440;2023-02-01T13:40:33;97517.53;;;11.47;48.81
78073;BME280;67281;48.770;11.440;2023-02-01T13:43:07;97514.19;;;11.58;48.05
78073;BME280;67281;48.770;11.440;2023-02-01T13:45:47;97510.72;;;11.57;48.34
78073;BME280;67281;48.770;11.440;2023-02-01T13:48:26;97510.59;;;11.71;47.45
78073;BME280;67281;48.770;11.440;2023-02-01T13:50:56;97511.97;;;11.77;47.41
78073;BME280;67281;48.770;11.440;2023-02-01T13:53:32;97510.25;;;11.89;47.22
78073;BME280;67281;48.770;11.440;2023-02-01T13:56:08;97508.31;;;11.79;47.58
78073;BME280;67281;48.770;11.440;2023-02-01T13:58:40;97501.38;;;11.78;47.89
78073;BME280;67281;48.770;11.440;2023-02-01T14:06:43;97500.72;;;11.75;47.46
78073;BME280;67281;48.770;11.440;2023-02-01T14:09:14;97500.31;;;11.68;47.56
78073;BME280;67281;48.770;11.440;2023-02-01T14:11:50;97496.53;;;11.72;47.95
78073;BME280;67281;48.770;11.440;2023-02-01T14:19:34;97497.19;;;11.50;47.84
78073;BME280;67281;48.770;11.440;2023-02-01T14:24:52;97510.28;;;11.63;47.74
78073;BME280;67281;48.770;11.440;2023-02-01T14:27:34;97497.59;;;11.57;47.54
78073;BME280;67281;48.770;11.440;2023-02-01T14:30:07;97501.47;;;11.51;47.95
78073;BME280;67281;48.770;11.440;2023-02-01T14:32:37;97501.16;;;11.56;47.85
78073;BME280;67281;48.770;11.440;2023-02-01T14:35:19;97510.63;;;11.59;47.70
78073;BME280;67281;48.770;11.440;2023-02-01T14:37:52;97511.88;;;11.53;47.93
78073;BME280;67281;48.770;11.440;2023-02-01T14:40:25;97513.56;;;11.54;47.85
78073;BME280;67281;48.770;11.440;2023-02-01T14:42:53;97509.44;;;11.63;47.24
78073;BME280;67281;48.770;11.440;2023-02-01T14:48:39;97517.84;;;11.55;47.86
78073;BME280;67281;48.770;11.440;2023-02-01T14:50:47;97516.38;;;11.51;47.47
78073;BME280;67281;48.770;11.440;2023-02-01T14:53:18;97515.66;;;11.49;47.72
78073;BME280;67281;48.770;11.440;2023-02-01T14:56:00;97509.16;;;11.55;47.67
78073;BME280;67281;48.770;11.440;2023-02-01T14:58:42;97514.41;;;11.55;47.72
78073;BME280;67281;48.770;11.440;2023-02-01T15:01:20;97513.97;;;11.48;48.11
78073;BME280;67281;48.770;11.440;2023-02-01T15:07:05;97513.03;;;11.36;47.51
78073;BME280;67281;48.770;11.440;2023-02-01T15:09:36;97513.78;;;11.38;47.80
78073;BME280;67281;48.770;11.440;2023-02-01T15:14:35;97523.94;;;11.56;47.46